createdAt,value
2018-09-21T00:01:55.431Z,21.41
2018-09-21T00:04:25.499Z,21.44
2018-09-21T00:06:55.362Z,21.49
2018-09-21T00:09:25.176Z,21.40
2018-09-21T00:11:55.249Z,21.44
2018-09-21T00:14:25.242Z,21.45
2018-09-21T00:16:55.304Z,21.44
2018-09-21T00:19:25.185Z,21.48
2018-09-21T00:21:55.117Z,21.47
2018-09-21T00:24:25.103Z,21.48
2018-09-21T00:26:54.999Z,21.45
2018-09-21T00:29:25.399Z,21.46
2018-09-21T00:31:55.178Z,21.45
2018-09-21T00:34:25.266Z,21.45
2018-09-21T00:36:57.285Z,21.53
2018-09-21T00:39:27.371Z,21.52
2018-09-21T00:41:57.719Z,21.57
2018-09-21T00:44:27.757Z,21.49
2018-09-21T00:46:57.821Z,21.54
2018-09-21T00:49:27.889Z,21.50
2018-09-21T00:51:57.886Z,21.47
2018-09-21T00:54:28.243Z,21.44
2018-09-21T00:56:58.573Z,21.44
2018-09-21T00:59:28.418Z,21.40
2018-09-21T01:01:58.297Z,21.38
2018-09-21T01:04:32.364Z,21.38
2018-09-21T01:07:02.300Z,21.33
2018-09-21T01:09:32.277Z,21.36
2018-09-21T01:12:02.297Z,21.35
2018-09-21T01:14:32.141Z,21.42
2018-09-21T01:17:02.075Z,21.38
2018-09-21T01:19:32.387Z,21.40
2018-09-21T01:22:02.570Z,21.34
2018-09-21T01:24:32.581Z,21.30
2018-09-21T01:27:02.594Z,21.34
2018-09-21T01:29:32.584Z,21.32
2018-09-21T01:32:04.409Z,21.30
2018-09-21T01:34:34.183Z,21.36
2018-09-21T01:37:04.106Z,21.33
2018-09-21T01:39:34.156Z,21.37
2018-09-21T01:42:04.164Z,21.40
2018-09-21T01:44:34.331Z,21.33
2018-09-21T01:47:04.290Z,21.31
2018-09-21T01:49:34.310Z,21.29
2018-09-21T01:52:04.407Z,21.27
2018-09-21T01:54:34.823Z,21.32
2018-09-21T01:57:04.900Z,21.31
2018-09-21T01:59:34.808Z,21.30
2018-09-21T02:02:04.790Z,21.30
2018-09-21T02:04:39.310Z,21.27
2018-09-21T02:07:11.898Z,21.29
2018-09-21T02:09:41.947Z,21.32
2018-09-21T02:12:11.926Z,21.36
2018-09-21T02:14:41.893Z,21.39
2018-09-21T02:17:11.798Z,21.37
2018-09-21T02:19:42.204Z,21.43
2018-09-21T02:22:12.238Z,21.57
2018-09-21T02:24:42.153Z,21.62
2018-09-21T02:27:12.289Z,21.58
2018-09-21T02:29:42.466Z,21.57
2018-09-21T02:32:12.642Z,21.63
2018-09-21T02:34:42.596Z,21.62
2018-09-21T02:37:12.783Z,21.57
2018-09-21T02:39:43.050Z,21.54
2018-09-21T02:42:13.352Z,21.57
2018-09-21T02:44:43.950Z,21.58
2018-09-21T02:47:14.457Z,21.58
2018-09-21T02:49:44.727Z,21.57
2018-09-21T02:52:14.670Z,21.60
2018-09-21T02:54:44.627Z,21.63
2018-09-21T02:57:14.979Z,21.65
2018-09-21T02:59:45.177Z,21.64
2018-09-21T03:02:15.855Z,21.70
2018-09-21T03:04:50.957Z,21.68
2018-09-21T03:07:21.342Z,21.66
2018-09-21T03:09:51.777Z,21.63
2018-09-21T03:12:22.269Z,21.60
2018-09-21T03:14:53.043Z,21.63
2018-09-21T03:17:23.434Z,21.70
2018-09-21T03:19:53.819Z,21.71
2018-09-21T03:22:23.843Z,21.67
2018-09-21T03:24:54.234Z,21.60
2018-09-21T03:27:24.635Z,21.57
2018-09-21T03:29:55.298Z,21.58
2018-09-21T03:32:25.817Z,21.55
2018-09-21T03:34:56.193Z,21.59
2018-09-21T03:37:26.365Z,21.62
2018-09-21T03:39:56.672Z,21.61
2018-09-21T03:42:26.888Z,21.58
2018-09-21T03:44:57.346Z,21.56
2018-09-21T03:47:27.432Z,21.60
2018-09-21T03:49:57.551Z,21.52
2018-09-21T03:52:27.437Z,21.45
2018-09-21T03:54:57.541Z,21.48
2018-09-21T03:57:27.705Z,21.49
2018-09-21T03:59:57.886Z,21.57
2018-09-21T04:02:27.818Z,21.52
2018-09-21T04:04:58.824Z,21.51
2018-09-21T04:07:29.025Z,21.50
2018-09-21T04:09:59.521Z,21.52
2018-09-21T04:12:30.767Z,21.50
2018-09-21T04:15:01.267Z,21.52
2018-09-21T04:17:31.847Z,21.56
2018-09-21T04:20:01.980Z,21.62
2018-09-21T04:22:32.471Z,21.69
2018-09-21T04:25:03.360Z,21.75
2018-09-21T04:27:34.831Z,21.78
2018-09-21T04:30:05.289Z,21.80
2018-09-21T04:32:35.681Z,21.81
2018-09-21T04:35:06.105Z,21.95
2018-09-21T04:37:36.658Z,21.96
2018-09-21T04:40:06.913Z,22.02
2018-09-21T04:42:37.261Z,21.98
2018-09-21T04:45:07.908Z,21.97
2018-09-21T04:47:37.972Z,22.06
2018-09-21T04:50:08.242Z,22.07
2018-09-21T04:52:39.154Z,22.07
2018-09-21T04:55:09.696Z,22.06
2018-09-21T04:57:39.803Z,22.00
2018-09-21T05:00:10.415Z,21.95
2018-09-21T05:02:40.664Z,21.95
2018-09-21T05:05:19.291Z,21.89
2018-09-21T05:07:58.565Z,21.90
2018-09-21T05:10:29.761Z,22.01
2018-09-21T05:13:00.179Z,22.06
2018-09-21T05:15:30.256Z,22.12
2018-09-21T05:18:00.632Z,22.15
2018-09-21T05:20:31.840Z,22.22
2018-09-21T05:23:02.044Z,22.14
2018-09-21T05:25:32.697Z,22.22
2018-09-21T05:28:02.760Z,22.24
2018-09-21T05:30:32.963Z,22.22
2018-09-21T05:33:02.780Z,22.13
2018-09-21T05:35:32.937Z,22.23
2018-09-21T05:38:02.840Z,22.21
2018-09-21T05:40:32.906Z,22.23
2018-09-21T05:43:02.757Z,22.36
2018-09-21T05:45:32.775Z,22.34
2018-09-21T05:48:02.548Z,22.34
2018-09-21T05:50:33.124Z,22.33
2018-09-21T05:53:02.895Z,22.35
2018-09-21T05:55:33.156Z,22.31
2018-09-21T05:58:03.426Z,22.31
2018-09-21T06:00:33.385Z,22.36
2018-09-21T06:03:03.439Z,22.34
2018-09-21T06:05:33.497Z,22.36
2018-09-21T06:08:03.630Z,22.44
2018-09-21T06:10:33.623Z,22.35
2018-09-21T06:13:03.877Z,22.35
2018-09-21T06:15:34.051Z,22.38
2018-09-21T06:18:04.474Z,22.48
2018-09-21T06:20:34.530Z,22.48
2018-09-21T06:23:04.941Z,22.53
2018-09-21T06:25:35.317Z,22.57
2018-09-21T06:28:05.607Z,22.65
2018-09-21T06:30:35.564Z,22.64
2018-09-21T06:33:05.875Z,22.59
2018-09-21T06:35:35.981Z,22.65
2018-09-21T06:38:12.625Z,22.69
2018-09-21T06:40:42.836Z,22.66
2018-09-21T06:43:12.747Z,22.71
2018-09-21T06:45:42.624Z,22.65
2018-09-21T06:48:12.995Z,22.65
2018-09-21T06:50:42.953Z,22.66
2018-09-21T06:53:12.876Z,22.72
2018-09-21T06:55:42.696Z,22.73
2018-09-21T06:58:12.772Z,22.69
2018-09-21T07:00:42.762Z,22.64
2018-09-21T07:03:12.743Z,22.71
2018-09-21T07:05:42.655Z,22.80
2018-09-21T07:08:12.487Z,22.77
2018-09-21T07:10:42.555Z,22.81
2018-09-21T07:13:12.491Z,22.75
2018-09-21T07:15:42.834Z,22.79
2018-09-21T07:18:12.649Z,22.75
2018-09-21T07:20:42.647Z,22.70
2018-09-21T07:23:12.675Z,22.66
2018-09-21T07:25:42.616Z,22.63
2018-09-21T07:28:12.500Z,22.65
2018-09-21T07:30:42.271Z,22.68
2018-09-21T07:33:12.036Z,22.64
2018-09-21T07:35:42.132Z,22.56
2018-09-21T07:38:12.032Z,22.56
2018-09-21T07:40:41.940Z,22.54
2018-09-21T07:43:11.997Z,22.44
2018-09-21T07:45:41.901Z,22.41
2018-09-21T07:48:11.769Z,22.43
2018-09-21T07:50:41.519Z,22.38
2018-09-21T07:53:11.575Z,22.35
2018-09-21T07:55:41.512Z,22.30
2018-09-21T07:58:11.564Z,22.32
2018-09-21T08:00:41.449Z,22.33
2018-09-21T08:03:11.455Z,22.36
2018-09-21T08:05:41.319Z,22.30
2018-09-21T08:08:11.486Z,22.35
2018-09-21T08:10:41.270Z,22.29
2018-09-21T08:13:11.242Z,22.32
2018-09-21T08:15:41.165Z,22.25
2018-09-21T08:18:11.500Z,22.23
2018-09-21T08:20:41.479Z,22.12
2018-09-21T08:23:11.315Z,22.10
2018-09-21T08:25:41.596Z,22.05
2018-09-21T08:28:11.385Z,22.01
2018-09-21T08:30:41.284Z,21.83
2018-09-21T08:33:11.109Z,21.59
2018-09-21T08:35:41.185Z,21.08
2018-09-21T08:38:11.092Z,20.03
2018-09-21T08:40:41.061Z,18.71
2018-09-21T08:43:11.029Z,18.06
2018-09-21T08:45:41.416Z,17.83
2018-09-21T08:48:11.558Z,17.74
2018-09-21T08:50:41.488Z,17.48
2018-09-21T08:53:11.457Z,17.57
2018-09-21T08:55:41.433Z,17.66
2018-09-21T08:58:11.787Z,17.34
2018-09-21T09:00:41.735Z,17.46
2018-09-21T09:03:12.011Z,17.53
2018-09-21T09:05:42.004Z,17.42
2018-09-21T09:08:12.164Z,17.42
2018-09-21T09:10:42.050Z,17.35
2018-09-21T09:13:12.043Z,17.28
2018-09-21T09:15:41.933Z,17.32
2018-09-21T09:18:11.762Z,17.35
2018-09-21T09:20:48.272Z,17.30
2018-09-21T09:23:18.358Z,17.45
2018-09-21T09:25:48.210Z,17.42
2018-09-21T09:28:18.095Z,17.38
2018-09-21T09:30:48.088Z,17.46
2018-09-21T09:33:18.115Z,17.57
2018-09-21T09:35:47.989Z,17.58
2018-09-21T09:38:17.916Z,17.59
2018-09-21T09:40:47.915Z,17.58
2018-09-21T09:43:18.242Z,17.70
2018-09-21T09:45:48.090Z,17.62
2018-09-21T09:48:18.090Z,17.66
2018-09-21T09:50:48.068Z,17.59
2018-09-21T09:53:18.050Z,17.52
2018-09-21T09:55:47.891Z,17.66
2018-09-21T09:58:17.992Z,17.61
2018-09-21T10:00:52.893Z,17.63
2018-09-21T10:03:24.805Z,17.70
2018-09-21T10:05:54.644Z,17.78
2018-09-21T10:08:25.431Z,17.95
2018-09-21T10:10:55.292Z,18.08
2018-09-21T10:13:25.378Z,18.15
2018-09-21T10:15:55.355Z,18.27
2018-09-21T10:18:25.617Z,18.37
2018-09-21T10:20:55.473Z,18.42
2018-09-21T10:23:25.304Z,18.52
2018-09-21T10:25:55.358Z,18.57
2018-09-21T10:28:25.587Z,18.69
2018-09-21T10:30:55.263Z,18.58
2018-09-21T10:33:25.048Z,18.64
2018-09-21T10:35:55.004Z,18.73
2018-09-21T10:38:24.906Z,18.79
2018-09-21T10:40:54.668Z,18.90
2018-09-21T10:43:24.611Z,18.92
2018-09-21T10:45:54.559Z,18.99
2018-09-21T10:48:24.604Z,19.24
2018-09-21T10:50:54.498Z,19.25
2018-09-21T10:53:24.269Z,19.21
2018-09-21T10:55:54.369Z,19.21
2018-09-21T10:58:24.267Z,18.96
2018-09-21T11:00:54.358Z,18.85
2018-09-21T11:03:24.241Z,18.86
2018-09-21T11:05:54.097Z,18.72
2018-09-21T11:08:23.954Z,18.70
2018-09-21T11:10:53.882Z,18.80
2018-09-21T11:13:23.799Z,18.78
2018-09-21T11:15:53.533Z,18.68
2018-09-21T11:18:23.543Z,18.60
2018-09-21T11:20:53.307Z,18.56
2018-09-21T11:23:23.493Z,18.81
2018-09-21T11:25:53.352Z,18.97
2018-09-21T11:28:23.355Z,19.09
2018-09-21T11:30:53.283Z,19.23
2018-09-21T11:33:23.117Z,19.51
2018-09-21T11:35:53.319Z,19.62
2018-09-21T11:38:23.675Z,19.70
2018-09-21T11:40:53.551Z,19.79
2018-09-21T11:43:23.783Z,19.92
2018-09-21T11:45:53.671Z,20.04
2018-09-21T11:48:23.905Z,20.05
2018-09-21T11:50:53.974Z,19.99
2018-09-21T11:53:23.950Z,20.00
2018-09-21T11:55:53.688Z,20.02
2018-09-21T11:58:23.783Z,19.84
2018-09-21T12:00:53.768Z,19.89
2018-09-21T12:03:23.879Z,19.87
2018-09-21T12:05:53.764Z,19.81
2018-09-21T12:08:23.675Z,19.64
2018-09-21T12:10:53.513Z,19.32
2018-09-21T12:13:23.403Z,19.22
2018-09-21T12:15:53.303Z,19.23
2018-09-21T12:18:23.183Z,19.22
2018-09-21T12:20:53.435Z,19.23
2018-09-21T12:23:23.653Z,19.23
2018-09-21T12:25:53.769Z,19.33
2018-09-21T12:28:24.149Z,19.75
2018-09-21T12:30:55.013Z,19.71
2018-09-21T12:33:24.893Z,19.57
2018-09-21T12:35:55.519Z,19.50
2018-09-21T12:38:25.391Z,19.50
2018-09-21T12:40:55.650Z,19.52
2018-09-21T12:43:25.431Z,19.59
2018-09-21T12:45:55.305Z,19.49
2018-09-21T12:48:25.222Z,19.47
2018-09-21T12:50:55.162Z,19.58
2018-09-21T12:53:25.168Z,19.70
2018-09-21T12:55:55.418Z,19.68
2018-09-21T12:58:25.486Z,19.81
2018-09-21T13:00:55.400Z,19.87
2018-09-21T13:03:25.396Z,20.16
2018-09-21T13:05:57.275Z,20.03
2018-09-21T13:08:27.614Z,19.87
2018-09-21T13:10:58.131Z,19.90
2018-09-21T13:13:28.264Z,19.68
2018-09-21T13:15:58.286Z,19.72
2018-09-21T13:18:28.208Z,19.59
2018-09-21T13:20:58.518Z,19.61
2018-09-21T13:23:28.867Z,19.65
2018-09-21T13:25:58.953Z,19.79
2018-09-21T13:28:28.948Z,19.82
2018-09-21T13:30:59.146Z,19.74
2018-09-21T13:33:29.055Z,19.56
2018-09-21T13:35:58.889Z,19.50
2018-09-21T13:38:28.861Z,19.51
2018-09-21T13:40:58.757Z,19.47
2018-09-21T13:43:28.850Z,19.51
2018-09-21T13:45:58.829Z,19.71
2018-09-21T13:48:28.962Z,20.03
2018-09-21T13:50:58.882Z,20.32
2018-09-21T13:53:28.839Z,20.72
2018-09-21T13:55:58.878Z,21.12
2018-09-21T13:58:29.249Z,21.23
2018-09-21T14:00:59.152Z,21.24
2018-09-21T14:03:29.088Z,21.16
2018-09-21T14:06:03.047Z,21.10
2018-09-21T14:08:33.348Z,21.21
2018-09-21T14:11:03.355Z,21.49
2018-09-21T14:13:33.222Z,21.44
2018-09-21T14:16:03.199Z,21.31
2018-09-21T14:18:33.100Z,20.74
2018-09-21T14:21:03.064Z,20.00
2018-09-21T14:24:10.889Z,19.63
2018-09-21T14:26:40.695Z,19.35
2018-09-21T14:29:10.703Z,19.14
2018-09-21T14:31:40.865Z,19.11
2018-09-21T14:34:11.161Z,19.04
2018-09-21T14:36:41.008Z,18.96
2018-09-21T14:39:12.228Z,18.86
2018-09-21T14:41:42.099Z,18.72
2018-09-21T14:44:12.255Z,18.65
2018-09-21T14:46:42.573Z,18.58
2018-09-21T14:49:12.691Z,18.41
2018-09-21T14:51:42.752Z,18.44
2018-09-21T14:54:12.784Z,18.47
2018-09-21T14:56:42.945Z,18.56
2018-09-21T14:59:12.857Z,18.59
2018-09-21T15:01:42.807Z,18.61
2018-09-21T15:04:12.870Z,18.87
2018-09-21T15:06:43.180Z,18.86
2018-09-21T15:09:13.083Z,18.98
2018-09-21T15:11:43.464Z,19.05
2018-09-21T15:14:13.520Z,18.91
2018-09-21T15:16:43.636Z,18.83
2018-09-21T15:19:13.416Z,18.99
2018-09-21T15:21:43.531Z,18.94
2018-09-21T15:24:14.713Z,18.90
2018-09-21T15:26:44.861Z,18.67
2018-09-21T15:29:14.824Z,18.56
2018-09-21T15:31:44.696Z,18.55
2018-09-21T15:34:15.833Z,18.64
2018-09-21T15:36:46.992Z,18.64
2018-09-21T15:39:19.640Z,18.56
2018-09-21T15:41:53.061Z,18.58
2018-09-21T15:44:24.650Z,18.64
2018-09-21T15:46:59.883Z,18.56
2018-09-21T15:49:32.297Z,18.51
2018-09-21T15:52:04.017Z,18.47
2018-09-21T15:54:35.305Z,18.44
2018-09-21T15:57:05.438Z,18.39
2018-09-21T15:59:35.494Z,18.39
2018-09-21T16:02:05.417Z,18.35
2018-09-21T16:04:35.264Z,18.42
2018-09-21T16:07:05.549Z,18.35
2018-09-21T16:09:35.544Z,18.33
2018-09-21T16:12:05.481Z,18.25
2018-09-21T16:14:35.377Z,18.30
2018-09-21T16:17:05.236Z,18.23
2018-09-21T16:19:35.279Z,18.24
2018-09-21T16:22:05.250Z,18.19
2018-09-21T16:24:35.138Z,18.15
2018-09-21T16:27:05.187Z,18.21
2018-09-21T16:29:35.443Z,18.22
2018-09-21T16:32:05.405Z,18.12
2018-09-21T16:34:36.272Z,18.00
2018-09-21T16:37:06.101Z,17.99
2018-09-21T16:39:36.001Z,17.91
2018-09-21T16:42:06.041Z,17.93
2018-09-21T16:44:36.373Z,17.84
2018-09-21T16:47:06.592Z,17.88
2018-09-21T16:49:36.389Z,17.80
2018-09-21T16:52:06.264Z,17.79
2018-09-21T16:54:36.281Z,17.80
2018-09-21T16:57:06.503Z,17.73
2018-09-21T16:59:36.561Z,17.71
2018-09-21T17:02:06.726Z,17.66
2018-09-21T17:04:36.698Z,17.58
2018-09-21T17:07:06.615Z,17.54
2018-09-21T17:09:37.400Z,17.43
2018-09-21T17:12:07.343Z,17.42
2018-09-21T17:14:37.225Z,17.46
2018-09-21T17:17:07.152Z,17.45
2018-09-21T17:19:37.067Z,17.42
2018-09-21T17:22:07.142Z,17.31
2018-09-21T17:24:37.106Z,17.36
2018-09-21T17:27:07.065Z,17.31
2018-09-21T17:29:37.145Z,17.30
2018-09-21T17:32:07.297Z,17.19
2018-09-21T17:34:37.303Z,17.17
2018-09-21T17:37:07.429Z,17.15
2018-09-21T17:39:37.219Z,17.40
2018-09-21T17:42:07.401Z,17.54
2018-09-21T17:44:37.608Z,17.59
2018-09-21T17:47:07.718Z,17.48
2018-09-21T17:49:37.675Z,17.37
2018-09-21T17:52:07.840Z,17.25
2018-09-21T17:54:37.983Z,17.16
2018-09-21T17:57:08.539Z,17.14
2018-09-21T17:59:38.548Z,17.13
2018-09-21T18:02:08.596Z,17.20
2018-09-21T18:04:38.605Z,17.16
2018-09-21T18:07:08.491Z,17.22
2018-09-21T18:09:38.783Z,17.25
2018-09-21T18:12:08.716Z,17.27
2018-09-21T18:14:38.567Z,17.19
2018-09-21T18:17:08.670Z,17.17
2018-09-21T18:19:39.349Z,17.11
2018-09-21T18:22:09.680Z,17.04
2018-09-21T18:24:39.694Z,16.90
2018-09-21T18:27:16.535Z,16.80
2018-09-21T18:29:46.483Z,16.65
2018-09-21T18:32:16.404Z,16.54
2018-09-21T18:34:46.537Z,16.50
2018-09-21T18:37:16.503Z,16.47
2018-09-21T18:39:46.576Z,16.46
2018-09-21T18:42:16.596Z,16.38
2018-09-21T18:44:46.630Z,16.38
2018-09-21T18:47:16.918Z,16.37
2018-09-21T18:49:47.234Z,16.30
2018-09-21T18:52:17.363Z,16.32
2018-09-21T18:54:47.831Z,16.28
2018-09-21T18:57:18.385Z,16.26
2018-09-21T18:59:48.924Z,16.21
2018-09-21T19:02:19.102Z,16.30
2018-09-21T19:04:49.390Z,16.31
2018-09-21T19:07:24.871Z,16.33
2018-09-21T19:09:55.493Z,16.30
2018-09-21T19:12:26.393Z,16.29
2018-09-21T19:14:57.244Z,16.18
2018-09-21T19:17:28.097Z,16.21
2018-09-21T19:19:58.517Z,16.14
2018-09-21T19:22:29.029Z,16.16
2018-09-21T19:24:59.851Z,16.24
2018-09-21T19:27:30.324Z,16.29
2018-09-21T19:30:01.313Z,16.42
2018-09-21T19:32:31.771Z,16.47
2018-09-21T19:35:02.197Z,16.52
2018-09-21T19:37:32.793Z,16.55
2018-09-21T19:40:03.367Z,16.57
2018-09-21T19:42:33.571Z,16.58
2018-09-21T19:45:03.949Z,16.64
2018-09-21T19:47:34.400Z,16.58
2018-09-21T19:50:05.318Z,16.50
2018-09-21T19:52:35.552Z,16.46
2018-09-21T19:55:06.111Z,16.42
2018-09-21T19:57:36.317Z,16.40
2018-09-21T20:00:07.200Z,16.36
2018-09-21T20:02:37.779Z,16.41
2018-09-21T20:05:08.252Z,16.38
2018-09-21T20:07:38.582Z,16.35
2018-09-21T20:10:09.073Z,16.40
2018-09-21T20:12:39.549Z,16.44
2018-09-21T20:15:09.828Z,16.47
2018-09-21T20:17:40.123Z,16.45
2018-09-21T20:20:10.366Z,16.44
2018-09-21T20:22:40.700Z,16.43
2018-09-21T20:25:11.211Z,16.35
2018-09-21T20:27:41.733Z,16.26
2018-09-21T20:30:17.527Z,16.29
2018-09-21T20:32:52.916Z,16.27
2018-09-21T20:35:23.667Z,16.26
2018-09-21T20:37:53.956Z,16.27
2018-09-21T20:40:24.327Z,16.25
2018-09-21T20:42:54.474Z,16.19
2018-09-21T20:45:24.838Z,16.17
2018-09-21T20:47:54.908Z,16.07
2018-09-21T20:50:25.279Z,16.03
2018-09-21T20:52:55.789Z,15.99
2018-09-21T20:55:26.292Z,15.98
2018-09-21T20:57:56.810Z,15.92
2018-09-21T21:03:05.272Z,15.94
2018-09-21T21:05:35.478Z,15.87
2018-09-21T21:08:05.943Z,15.89
2018-09-21T21:10:35.855Z,15.86
2018-09-21T21:13:06.263Z,15.86
2018-09-21T21:15:36.308Z,15.80
2018-09-21T21:18:06.884Z,15.76
2018-09-21T21:20:37.176Z,15.75
2018-09-21T21:23:07.475Z,15.74
2018-09-21T21:25:37.466Z,15.69
2018-09-21T21:28:07.911Z,15.72
2018-09-21T21:30:38.203Z,15.75
2018-09-21T21:33:08.318Z,15.66
2018-09-21T21:35:38.450Z,15.64
2018-09-21T21:38:08.450Z,15.63
2018-09-21T21:40:38.717Z,15.68
2018-09-21T21:43:08.560Z,15.61
2018-09-21T21:45:38.364Z,15.65
2018-09-21T21:48:08.476Z,15.62
2018-09-21T21:50:38.336Z,15.56
2018-09-21T21:53:08.706Z,15.51
2018-09-21T21:55:38.627Z,15.54
2018-09-21T21:58:08.756Z,15.48
2018-09-21T22:00:43.867Z,15.43
2018-09-21T22:03:13.977Z,15.48
2018-09-21T22:05:43.868Z,15.49
2018-09-21T22:08:13.732Z,15.43
2018-09-21T22:10:43.881Z,15.42
2018-09-21T22:13:18.858Z,15.48
2018-09-21T22:15:48.744Z,15.46
2018-09-21T22:18:18.635Z,15.40
2018-09-21T22:20:51.002Z,15.39
2018-09-21T22:23:21.094Z,15.44
2018-09-21T22:25:50.973Z,15.47
2018-09-21T22:28:20.787Z,15.52
2018-09-21T22:30:50.705Z,15.51
2018-09-21T22:33:20.678Z,15.50
2018-09-21T22:35:51.138Z,15.45
2018-09-21T22:38:20.971Z,15.40
2018-09-21T22:40:51.039Z,15.35
2018-09-21T22:43:21.108Z,15.41
2018-09-21T22:45:50.865Z,15.41
2018-09-21T22:48:20.798Z,15.43
2018-09-21T22:50:50.728Z,15.54
2018-09-21T22:53:20.827Z,15.53
2018-09-21T22:55:51.086Z,15.65
2018-09-21T22:58:21.135Z,15.54
2018-09-21T23:00:51.135Z,15.53
2018-09-21T23:03:21.897Z,15.56
2018-09-21T23:05:52.324Z,15.50
2018-09-21T23:08:22.336Z,15.44
2018-09-21T23:10:52.267Z,15.48
2018-09-21T23:13:22.309Z,15.40
2018-09-21T23:15:52.807Z,15.38
2018-09-21T23:18:22.850Z,15.43
2018-09-21T23:20:52.745Z,15.43
2018-09-21T23:23:22.752Z,15.38
2018-09-21T23:25:52.793Z,15.47
2018-09-21T23:28:22.613Z,15.51
2018-09-21T23:30:52.527Z,15.47
2018-09-21T23:33:22.524Z,15.53
2018-09-21T23:35:52.491Z,15.45
2018-09-21T23:38:22.475Z,15.38
2018-09-21T23:40:52.229Z,15.38
2018-09-21T23:43:22.069Z,15.40
2018-09-21T23:45:52.005Z,15.40
2018-09-21T23:48:22.114Z,15.45
2018-09-21T23:50:52.151Z,15.46
2018-09-21T23:53:21.935Z,15.46
2018-09-21T23:55:51.824Z,15.47
2018-09-21T23:58:21.823Z,15.48
